Time;durP1;ratioP1;P1;durP2;ratioP2;P2;SDS_P1;SDS_P2;PMS_P1;PMS_P2;Temp;Humidity;BMP_temperature;BMP_pressure;BME280_temperature;BME280_humidity;BME280_pressure;Samples;Min_cycle;Max_cycle;Signal;HPM_P1;HPM_P2
2022/06/08 00:00:45;;;;;;;4.93;1.20;;;;;;;22.92;56.22;100568.78;2077966;28;20454;-74
2022/06/08 00:02:07;;;;;;;6.47;1.25;;;;;;;22.92;56.33;100573.28;2078317;28;20124;-74
2022/06/08 00:03:35;;;;;;;4.65;1.52;;;;;;;22.93;56.35;100559.75;2070874;28;20621;-74
2022/06/08 00:05:00;;;;;;;3.75;1.50;;;;;;;22.93;56.33;100567.84;2076539;28;20048;-73
2022/06/08 00:06:23;;;;;;;3.08;1.50;;;;;;;22.89;56.31;100574.28;2086055;28;20560;-73
2022/06/08 00:07:46;;;;;;;5.43;1.35;;;;;;;22.85;56.34;100567.25;2078614;28;20145;-73
2022/06/08 00:09:07;;;;;;;12.15;1.95;;;;;;;22.82;56.49;100577.28;2075286;28;20545;-73
2022/06/08 00:10:31;;;;;;;4.18;1.65;;;;;;;22.81;56.50;100575.50;2058877;28;20057;-73
2022/06/08 00:11:52;;;;;;;4.72;1.70;;;;;;;22.78;56.56;100581.00;2065007;28;20050;-74
2022/06/08 00:13:15;;;;;;;2.85;1.58;;;;;;;22.76;56.68;100577.50;2074485;28;20053;-74
2022/06/08 00:14:38;;;;;;;6.20;1.38;;;;;;;22.73;56.74;100565.03;2087849;28;20577;-73
2022/06/08 00:16:01;;;;;;;1.90;1.55;;;;;;;22.70;56.92;100567.81;2079137;28;20045;-73
2022/06/08 00:17:24;;;;;;;3.17;1.60;;;;;;;22.65;57.02;100562.59;2077741;28;20136;-74
2022/06/08 00:18:47;;;;;;;2.58;1.33;;;;;;;22.65;56.94;100564.38;2066880;28;20057;-74
2022/06/08 00:20:14;;;;;;;3.58;1.40;;;;;;;22.63;57.09;100560.91;2091309;28;20087;-73
2022/06/08 00:21:36;;;;;;;4.05;1.58;;;;;;;22.61;57.27;100563.66;2080310;28;20056;-74
2022/06/08 00:23:00;;;;;;;3.38;1.33;;;;;;;22.61;57.22;100568.16;2079854;28;20046;-74
2022/06/08 00:24:21;;;;;;;2.92;1.38;;;;;;;22.60;57.27;100561.88;2083901;28;20041;-73
2022/06/08 00:25:45;;;;;;;1.90;1.50;;;;;;;22.61;57.25;100562.75;2085646;28;20048;-73
2022/06/08 00:27:09;;;;;;;4.65;1.90;;;;;;;22.60;57.27;100561.00;2085384;28;20506;-74
2022/06/08 00:28:31;;;;;;;5.18;1.67;;;;;;;22.56;57.35;100560.25;2080129;28;20053;-74
2022/06/08 00:29:54;;;;;;;3.95;1.50;;;;;;;22.54;57.35;100555.84;2077617;28;20099;-74
2022/06/08 00:31:15;;;;;;;4.75;1.50;;;;;;;22.50;57.37;100556.91;2070663;28;20470;-73
2022/06/08 00:32:42;;;;;;;3.83;1.65;;;;;;;22.46;57.64;100566.88;2084150;28;20057;-74
2022/06/08 00:34:03;;;;;;;3.55;1.65;;;;;;;22.46;57.65;100557.94;2074517;28;20049;-74
2022/06/08 00:35:28;;;;;;;5.18;1.60;;;;;;;22.47;57.79;100563.25;2076724;28;20052;-73
2022/06/08 00:36:49;;;;;;;2.95;1.20;;;;;;;22.44;57.95;100562.50;2077071;28;20569;-73
2022/06/08 00:38:12;;;;;;;3.28;1.52;;;;;;;22.38;58.03;100560.06;2083064;28;20056;-74
2022/06/08 00:39:35;;;;;;;7.53;1.77;;;;;;;22.36;58.12;100565.47;2074135;28;20745;-74
2022/06/08 00:41:09;;;;;;;6.68;1.73;;;;;;;22.37;58.10;100564.56;2074837;28;20045;-73
2022/06/08 00:42:31;;;;;;;4.55;1.73;;;;;;;22.37;58.20;100558.28;2070913;28;20061;-74
2022/06/08 00:43:55;;;;;;;4.28;1.48;;;;;;;22.39;58.24;100561.78;2067953;28;20042;-74
2022/06/08 00:45:20;;;;;;;3.70;1.80;;;;;;;22.41;58.42;100554.53;2082562;28;20140;-73
2022/06/08 00:46:42;;;;;;;5.32;1.98;;;;;;;22.40;58.35;100556.34;2094267;28;20050;-73
2022/06/08 00:48:07;;;;;;;3.63;1.75;;;;;;;22.40;58.54;100548.28;2079000;28;20494;-74
2022/06/08 00:49:36;;;;;;;2.45;1.50;;;;;;;22.40;58.58;100558.16;2077124;28;20102;-74
2022/06/08 00:50:59;;;;;;;1.88;1.40;;;;;;;22.38;58.52;100557.34;2076497;28;20079;-73
2022/06/08 00:52:23;;;;;;;4.00;1.70;;;;;;;22.36;58.76;100551.16;2085484;28;20103;-74
2022/06/08 00:53:51;;;;;;;5.57;2.00;;;;;;;22.35;58.82;100560.16;2077833;28;20618;-74
2022/06/08 00:55:16;;;;;;;2.10;1.40;;;;;;;22.34;58.92;100556.56;2076042;28;20045;-74
2022/06/08 00:56:43;;;;;;;4.07;1.58;;;;;;;22.32;59.12;100549.50;2074394;28;20575;-73
2022/06/08 00:58:12;;;;;;;4.60;2.38;;;;;;;22.31;59.20;100553.13;2086485;28;20049;-74
2022/06/08 00:59:35;;;;;;;5.18;1.65;;;;;;;22.29;59.36;100549.59;2078220;28;20041;-74
2022/06/08 01:00:58;;;;;;;4.53;1.75;;;;;;;22.30;59.55;100546.00;2077305;28;20073;-73
2022/06/08 01:02:20;;;;;;;4.32;1.80;;;;;;;22.30;59.49;100552.25;2075142;28;20107;-73
2022/06/08 01:03:45;;;;;;;6.50;1.98;;;;;;;22.27;59.56;100553.22;2070339;28;20041;-73
2022/06/08 01:05:23;;;;;;;3.47;1.65;;;;;;;22.27;59.57;100546.97;2089304;28;20571;-73
2022/06/08 01:06:55;;;;;;;4.35;1.75;;;;;;;22.25;59.77;100546.16;2080097;28;20407;-73
2022/06/08 01:08:24;;;;;;;2.25;1.48;;;;;;;22.23;59.70;100545.34;2078460;28;20132;-74
2022/06/08 01:09:48;;;;;;;5.50;1.83;;;;;;;22.22;59.73;100544.44;2076209;28;20045;-73
2022/06/08 01:11:13;;;;;;;7.18;1.80;;;;;;;22.22;59.72;100543.56;2075220;28;20402;-74
2022/06/08 01:12:35;;;;;;;6.15;1.70;;;;;;;22.19;59.78;100547.25;2075572;28;20503;-74
2022/06/08 01:14:03;;;;;;;3.17;1.75;;;;;;;;;;2075672;28;20077;-73
2022/06/08 01:15:29;;;;;;;5.28;1.40;;;;;;;22.20;59.78;100546.31;2066750;28;20065;-73
2022/06/08 01:16:58;;;;;;;3.60;1.45;;;;;;;22.20;59.82;100546.31;2070073;28;20457;-73
2022/06/08 01:18:22;;;;;;;5.03;2.03;;;;;;;22.23;59.75;100545.34;2069671;28;20136;-74
2022/06/08 01:19:47;;;;;;;5.32;1.75;;;;;;;22.23;59.79;100546.22;2078576;28;20076;-73
2022/06/08 01:21:49;;;;;;;1.98;1.33;;;;;;;22.23;59.75;100538.16;2077413;28;20041;-74
2022/06/08 01:23:20;;;;;;;3.83;1.48;;;;;;;22.22;59.65;100539.06;2073745;28;20626;-74
2022/06/08 01:24:45;;;;;;;3.28;1.58;;;;;;;22.24;59.64;100542.59;2070407;28;20049;-73
2022/06/08 01:26:18;;;;;;;4.20;1.67;;;;;;;22.26;59.56;100538.03;2069374;28;20054;-73
2022/06/08 01:27:53;;;;;;;3.45;1.63;;;;;;;22.25;59.36;100541.63;2069682;28;20050;-73
2022/06/08 01:29:21;;;;;;;6.47;1.83;;;;;;;22.21;59.33;100542.69;2086447;28;20060;-73
2022/06/08 01:30:52;;;;;;;2.63;1.60;;;;;;;22.20;59.45;100543.63;2079342;28;20052;-73
2022/06/08 01:32:34;;;;;;;3.67;1.52;;;;;;;22.18;59.22;100534.75;2078507;28;20049;-74
2022/06/08 01:34:06;;;;;;;6.20;1.90;;;;;;;22.14;59.24;100538.47;2079985;28;20128;-73
2022/06/08 01:35:41;;;;;;;3.35;1.67;;;;;;;22.11;59.35;100538.59;2078344;28;20057;-73
2022/06/08 01:37:16;;;;;;;3.78;1.90;;;;;;;22.09;59.31;100531.50;2078142;28;20050;-73
2022/06/08 01:38:49;;;;;;;5.30;1.90;;;;;;;22.09;59.40;100537.75;2076123;28;20061;-74
2022/06/08 01:40:30;;;;;;;5.00;1.65;;;;;;;22.09;59.46;100539.56;2077053;28;20136;-73
2022/06/08 01:42:18;;;;;;;5.30;2.03;;;;;;;22.07;59.42;100539.59;2079889;28;20049;-74
2022/06/08 01:43:50;;;;;;;2.95;1.90;;;;;;;22.06;59.53;100543.22;2078633;28;20076;-73
2022/06/08 01:45:37;;;;;;;3.67;1.77;;;;;;;22.05;59.50;100536.13;2077669;28;20105;-74
2022/06/08 01:47:11;;;;;;;5.80;1.50;;;;;;;22.05;59.59;100544.19;2071574;28;20045;-73
2022/06/08 01:48:54;;;;;;;3.17;1.70;;;;;;;22.04;59.52;100533.47;2069798;28;20599;-73
2022/06/08 01:50:22;;;;;;;3.25;1.70;;;;;;;22.03;59.75;100537.97;2088089;28;20052;-73
2022/06/08 01:51:56;;;;;;;4.05;1.60;;;;;;;22.02;59.73;100538.91;2071080;28;20046;-74
2022/06/08 01:53:30;;;;;;;4.80;1.88;;;;;;;22.00;59.92;100537.19;2080402;28;20048;-73
2022/06/08 01:55:12;;;;;;;3.47;1.65;;;;;;;22.01;60.03;100539.81;2073068;28;20064;-74
2022/06/08 01:56:44;;;;;;;5.90;1.75;;;;;;;21.97;60.03;100540.00;2088004;28;20037;-74
2022/06/08 01:58:16;;;;;;;5.72;2.03;;;;;;;21.95;60.01;100545.38;2078078;28;20565;-74
2022/06/08 01:59:47;;;;;;;3.28;1.75;;;;;;;21.94;59.91;100543.63;2077208;28;20597;-74
2022/06/08 02:01:20;;;;;;;9.48;2.28;;;;;;;21.92;60.14;100550.88;2077015;28;20467;-75
2022/06/08 02:02:58;;;;;;;4.03;1.85;;;;;;;21.92;60.00;100544.63;2074449;28;20069;-74
2022/06/08 02:04:31;;;;;;;3.30;1.55;;;;;;;21.90;60.03;100538.41;2085481;28;20053;-73
2022/06/08 02:06:01;;;;;;;3.28;1.60;;;;;;;21.88;60.14;100538.47;2084891;28;20394;-74
2022/06/08 02:07:35;;;;;;;4.07;1.75;;;;;;;21.85;60.33;100538.59;2071652;28;20062;-74
2022/06/08 02:09:04;;;;;;;8.80;2.10;;;;;;;21.84;60.39;100547.56;2070405;28;20042;-73
2022/06/08 02:10:37;;;;;;;4.78;1.85;;;;;;;21.83;60.55;100548.50;2092614;28;20057;-73
2022/06/08 02:12:03;;;;;;;5.45;1.70;;;;;;;21.79;60.82;100552.22;2088095;28;20523;-73
2022/06/08 02:13:39;;;;;;;3.53;1.80;;;;;;;21.77;60.85;100556.78;2080117;28;20050;-73
2022/06/08 02:15:10;;;;;;;2.58;1.55;;;;;;;21.76;60.87;100552.31;2084562;28;20037;-74
2022/06/08 02:16:44;;;;;;;3.30;1.58;;;;;;;21.76;60.96;100547.81;2088121;28;20056;-73
2022/06/08 02:18:12;;;;;;;1.75;1.10;;;;;;;21.77;61.16;100552.28;2081394;28;20080;-74
2022/06/08 02:19:42;;;;;;;4.28;1.73;;;;;;;21.77;61.12;100554.09;2086180;28;20413;-73
2022/06/08 02:21:12;;;;;;;7.18;1.70;;;;;;;21.75;61.09;100555.94;2078645;28;20049;-73
2022/06/08 02:22:39;;;;;;;2.38;1.52;;;;;;;21.74;61.03;100559.53;2069497;28;20153;-73
2022/06/08 02:24:13;;;;;;;4.82;1.75;;;;;;;21.72;61.18;100554.25;2072163;28;20040;-73
2022/06/08 02:25:42;;;;;;;4.53;2.45;;;;;;;21.72;61.36;100553.38;2078536;28;20195;-73
2022/06/08 02:27:13;;;;;;;4.70;1.70;;;;;;;21.73;61.36;100555.97;2092978;28;20057;-73
2022/06/08 02:28:40;;;;;;;3.40;1.52;;;;;;;21.73;61.38;100552.41;2074557;28;20152;-73
2022/06/08 02:30:10;;;;;;;4.55;1.58;;;;;;;21.74;61.45;100556.84;2085511;28;20820;-74
2022/06/08 02:31:37;;;;;;;3.42;1.92;;;;;;;21.72;61.55;100556.94;2080143;28;20590;-73
2022/06/08 02:34:55;;;;;;;3.33;1.63;;;;;;;21.72;61.45;100564.13;2080266;28;20565;-74
2022/06/08 02:36:24;;;;;;;2.80;1.63;;;;;;;21.70;61.58;100565.97;2085140;28;20049;-73
2022/06/08 02:37:51;;;;;;;3.45;1.55;;;;;;;21.69;61.64;100565.09;2087468;28;20131;-74
2022/06/08 02:39:18;;;;;;;4.82;2.05;;;;;;;21.71;61.81;100559.66;2082649;28;20040;-73
2022/06/08 02:40:47;;;;;;;8.15;1.77;;;;;;;21.72;61.74;100565.00;2072504;28;20427;-74
2022/06/08 02:42:14;;;;;;;6.10;1.40;;;;;;;21.72;61.78;100556.94;2071053;28;20061;-74
2022/06/08 02:43:43;;;;;;;9.43;1.80;;;;;;;21.72;62.08;100558.75;2077838;28;20910;-73
2022/06/08 02:45:15;;;;;;;7.30;1.70;;;;;;;21.71;62.00;100552.50;2074759;28;20045;-73
2022/06/08 02:46:46;;;;;;;4.30;1.60;;;;;;;21.72;62.03;100556.06;2070640;28;20470;-73
2022/06/08 02:48:12;;;;;;;5.00;1.95;;;;;;;21.73;61.99;100555.09;2069904;28;20053;-72
2022/06/08 02:49:34;;;;;;;3.17;1.77;;;;;;;21.74;61.92;100556.84;2073600;28;20133;-73
2022/06/08 02:50:59;;;;;;;7.38;1.95;;;;;;;21.72;61.89;100556.94;2076331;28;20124;-73
2022/06/08 02:52:29;;;;;;;4.15;1.70;;;;;;;21.72;61.84;100558.75;2084736;28;20454;-74
2022/06/08 02:53:58;;;;;;;5.68;1.75;;;;;;;21.70;61.99;100548.03;2077684;28;20493;-73
2022/06/08 02:55:30;;;;;;;4.10;1.88;;;;;;;21.69;61.68;100551.66;2061791;28;20061;-74
2022/06/08 02:57:03;;;;;;;5.47;2.10;;;;;;;21.66;61.65;100545.50;2077952;28;20099;-73
2022/06/08 02:58:33;;;;;;;4.97;1.45;;;;;;;21.60;61.80;100554.63;2078109;28;20072;-73
2022/06/08 03:00:02;;;;;;;4.10;1.75;;;;;;;21.57;62.15;100553.88;2071133;28;20408;-73
2022/06/08 03:01:33;;;;;;;5.28;1.70;;;;;;;21.53;62.12;100561.13;2069947;28;20053;-73
2022/06/08 03:03:03;;;;;;;5.03;1.90;;;;;;;21.48;62.48;100558.59;2079346;28;20495;-74
2022/06/08 03:04:35;;;;;;;5.72;1.42;;;;;;;21.48;62.37;100563.09;2072141;28;20152;-73
2022/06/08 03:06:04;;;;;;;3.40;1.80;;;;;;;21.50;62.47;100557.69;2081727;28;20697;-74
2022/06/08 03:07:35;;;;;;;3.35;1.67;;;;;;;21.52;62.41;100563.88;2079653;28;20381;-73
2022/06/08 03:09:01;;;;;;;5.47;1.90;;;;;;;21.52;62.36;100564.78;2076245;28;20034;-73
2022/06/08 03:10:26;;;;;;;3.25;1.50;;;;;;;21.55;62.26;100566.47;2068519;28;20042;-73
2022/06/08 03:11:53;;;;;;;3.83;1.55;;;;;;;21.58;62.21;100569.06;2076665;28;20041;-73
2022/06/08 03:13:21;;;;;;;4.07;1.60;;;;;;;21.59;62.05;100566.34;2070618;28;20042;-73
2022/06/08 03:14:47;;;;;;;5.85;1.90;;;;;;;21.53;62.11;100565.66;2081190;28;20557;-73
2022/06/08 03:16:26;;;;;;;2.33;1.52;;;;;;;21.51;62.16;100559.44;2073180;28;20065;-74
2022/06/08 03:17:50;;;;;;;4.88;1.70;;;;;;;21.55;61.91;100566.47;2086219;28;20142;-73
2022/06/08 03:19:12;;;;;;;8.65;1.98;;;;;;;21.60;61.84;100568.06;2078277;28;20049;-74
2022/06/08 03:20:36;;;;;;;5.55;1.60;;;;;;;21.55;61.87;100564.66;2071771;28;20038;-73
2022/06/08 03:21:58;;;;;;;4.75;1.55;;;;;;;21.48;62.24;100563.09;2068366;28;20065;-73
2022/06/08 03:23:24;;;;;;;2.85;1.40;;;;;;;21.52;62.36;100556.72;2070213;28;20046;-73
2022/06/08 03:24:46;;;;;;;4.68;1.70;;;;;;;21.61;62.24;100564.44;2081068;28;20498;-74
2022/06/08 03:26:08;;;;;;;2.25;1.60;;;;;;;21.70;61.96;100550.72;2078160;28;20052;-73
2022/06/08 03:27:31;;;;;;;7.63;1.95;;;;;;;21.78;61.75;100559.41;2083661;28;20055;-73
2022/06/08 03:28:56;;;;;;;4.07;1.60;;;;;;;21.93;61.44;100562.47;2078281;28;20057;-74
2022/06/08 03:30:19;;;;;;;2.67;1.35;;;;;;;22.04;61.01;100563.94;2078016;28;20132;-73
2022/06/08 03:31:40;;;;;;;2.67;1.70;;;;;;;22.14;60.89;100559.97;2083778;28;20147;-73
2022/06/08 03:33:03;;;;;;;2.30;1.60;;;;;;;22.24;60.77;100557.84;2075559;28;20053;-73
2022/06/08 03:34:26;;;;;;;3.40;1.40;;;;;;;22.33;60.43;100564.69;2073677;28;20069;-73
2022/06/08 03:35:49;;;;;;;4.32;1.60;;;;;;;22.39;60.09;100568.03;2083821;28;20395;-74
2022/06/08 03:37:14;;;;;;;4.68;1.80;;;;;;;22.48;60.16;100572.22;2072895;28;20050;-73
2022/06/08 03:38:42;;;;;;;4.90;1.83;;;;;;;22.54;60.10;100570.19;2068424;28;20053;-73
2022/06/08 03:40:06;;;;;;;3.95;1.33;;;;;;;22.64;60.00;100568.03;2069778;28;20463;-73
2022/06/08 03:41:29;;;;;;;4.25;1.20;;;;;;;22.74;59.66;100564.09;2083782;28;20084;-73
2022/06/08 03:42:53;;;;;;;4.70;1.45;;;;;;;22.81;59.30;100573.69;2085493;28;20072;-73
2022/06/08 03:44:17;;;;;;;5.43;2.28;;;;;;;22.82;59.14;100578.16;2080372;28;20514;-73
2022/06/08 03:45:44;;;;;;;3.90;1.40;;;;;;;22.79;59.41;100588.13;2083991;28;20614;-73
2022/06/08 03:47:10;;;;;;;3.83;1.42;;;;;;;22.87;59.27;100584.22;2086817;28;20053;-73
2022/06/08 03:48:34;;;;;;;2.83;1.60;;;;;;;22.97;58.91;100588.31;2077519;28;20736;-73
2022/06/08 03:50:00;;;;;;;5.60;1.70;;;;;;;23.07;58.68;100575.41;2074671;28;20461;-73
2022/06/08 03:51:22;;;;;;;2.08;1.40;;;;;;;23.17;58.58;100584.00;2073254;28;20053;-73
2022/06/08 03:52:52;;;;;;;4.78;1.70;;;;;;;23.30;58.42;100588.81;2075316;28;20045;-73
2022/06/08 03:54:16;;;;;;;2.55;1.65;;;;;;;23.44;58.28;100588.28;2070255;28;20064;-72
2022/06/08 03:55:40;;;;;;;5.28;2.53;;;;;;;23.58;58.12;100588.63;2084406;28;20060;-74
2022/06/08 03:57:05;;;;;;;5.78;1.85;;;;;;;23.73;57.77;100590.72;2080472;28;20053;-74
2022/06/08 03:58:28;;;;;;;4.03;1.45;;;;;;;23.87;57.57;100584.75;2078473;28;20081;-73
2022/06/08 03:59:53;;;;;;;6.03;1.58;;;;;;;24.03;57.39;100584.97;2074012;28;20178;-73
2022/06/08 04:01:15;;;;;;;3.90;1.35;;;;;;;24.18;56.86;100585.19;2077479;28;20037;-73
2022/06/08 04:02:40;;;;;;;3.20;1.40;;;;;;;24.35;56.69;100599.81;2070057;28;20046;-73
2022/06/08 04:04:02;;;;;;;5.85;1.40;;;;;;;24.50;56.38;100600.00;2059467;28;20054;-73
2022/06/08 04:05:27;;;;;;;2.70;1.38;;;;;;;24.66;56.14;100596.63;2067078;28;20632;-72
2022/06/08 04:06:51;;;;;;;3.10;1.40;;;;;;;24.83;55.67;100604.81;2081786;28;20144;-73
2022/06/08 04:08:15;;;;;;;5.00;1.50;;;;;;;24.98;55.05;100596.06;2069981;28;20046;-73
2022/06/08 04:09:44;;;;;;;4.53;1.60;;;;;;;25.15;54.60;100604.25;2071913;28;20053;-72
2022/06/08 04:11:07;;;;;;;3.67;1.27;;;;;;;25.28;54.14;100605.41;2067435;28;20262;-73
2022/06/08 04:12:30;;;;;;;2.30;1.50;;;;;;;25.42;53.91;100602.94;2067542;28;20061;-73
2022/06/08 04:13:53;;;;;;;3.85;1.40;;;;;;;25.59;53.19;100612.09;2066945;28;20053;-74
2022/06/08 04:16:56;;;;;;;4.72;1.40;;;;;;;25.89;52.38;100604.28;2079794;28;20108;-73
2022/06/08 04:18:20;;;;;;;3.30;1.25;;;;;;;26.00;51.73;100601.91;2077817;28;20135;-73
2022/06/08 04:19:47;;;;;;;4.00;1.35;;;;;;;26.08;51.56;100597.84;2084268;28;20386;-73
2022/06/08 04:21:13;;;;;;;4.40;1.35;;;;;;;26.23;51.20;100606.16;2078494;28;20068;-73
2022/06/08 04:22:44;;;;;;;4.13;1.30;;;;;;;26.39;50.76;100608.00;2078316;28;20049;-72
2022/06/08 04:24:10;;;;;;;7.35;1.45;;;;;;;26.55;50.18;100605.38;2070263;28;20200;-73
2022/06/08 04:25:34;;;;;;;8.45;1.40;;;;;;;26.73;49.64;100611.63;2070974;28;20046;-74
2022/06/08 04:26:57;;;;;;;5.18;1.30;;;;;;;26.93;49.06;100619.59;2080411;28;20041;-73
2022/06/08 04:28:25;;;;;;;2.42;1.17;;;;;;;27.15;48.83;100613.91;2078404;28;20041;-73
2022/06/08 04:29:54;;;;;;;3.08;1.30;;;;;;;27.36;48.50;100615.41;2078141;28;20038;-73
2022/06/08 04:31:19;;;;;;;3.65;1.13;;;;;;;27.59;47.93;100623.13;2077541;28;20065;-73
2022/06/08 04:32:45;;;;;;;6.32;1.35;;;;;;;27.82;47.40;100619.13;2072767;28;20049;-73
2022/06/08 04:34:11;;;;;;;9.27;2.15;;;;;;;28.05;46.88;100623.19;2075652;28;20136;-74
2022/06/08 04:35:35;;;;;;;2.83;1.17;;;;;;;28.28;46.33;100617.31;2074397;28;20140;-74
2022/06/08 04:36:57;;;;;;;2.63;1.00;;;;;;;28.50;45.26;100620.47;2066577;28;20041;-73
2022/06/08 04:38:30;;;;;;;7.57;1.30;;;;;;;28.72;44.66;100611.88;2069137;28;20503;-73
2022/06/08 04:39:54;;;;;;;1.88;1.05;;;;;;;28.91;43.39;100617.94;2075396;28;20049;-74
2022/06/08 04:41:17;;;;;;;6.30;1.48;;;;;;;29.10;42.94;100628.53;2077663;28;20049;-73
2022/06/08 04:42:39;;;;;;;3.53;1.10;;;;;;;29.30;42.72;100624.53;2071947;28;20423;-73
2022/06/08 04:44:02;;;;;;;2.65;1.08;;;;;;;29.53;42.16;100625.81;2066906;28;20053;-73
2022/06/08 04:45:26;;;;;;;4.35;1.10;;;;;;;29.74;41.59;100629.81;2074133;28;20136;-74
2022/06/08 04:46:50;;;;;;;7.53;1.38;;;;;;;29.94;41.30;100623.97;2085088;28;20052;-73
2022/06/08 04:48:16;;;;;;;4.15;1.25;;;;;;;30.18;40.90;100623.28;2077341;28;20053;-73
2022/06/08 04:49:41;;;;;;;3.25;0.90;;;;;;;30.33;40.30;100623.09;2077476;28;20556;-73
2022/06/08 04:51:06;;;;;;;2.92;0.90;;;;;;;30.53;40.15;100623.59;2069844;28;20399;-74
2022/06/08 04:52:30;;;;;;;3.92;1.20;;;;;;;30.69;39.69;100619.72;2067647;28;20060;-73
2022/06/08 04:53:53;;;;;;;4.28;1.10;;;;;;;30.75;39.27;100624.72;2075031;28;20110;-74
2022/06/08 04:55:17;;;;;;;3.47;1.10;;;;;;;30.88;39.18;100627.47;2075810;28;20056;-73
2022/06/08 04:56:42;;;;;;;4.75;1.13;;;;;;;31.05;38.82;100624.44;2076045;28;20045;-73
2022/06/08 04:58:05;;;;;;;5.05;1.20;;;;;;;31.09;38.31;100628.69;2082116;28;20441;-74
2022/06/08 04:59:28;;;;;;;3.40;0.75;;;;;;;31.17;37.89;100628.16;2076507;28;20056;-73
2022/06/08 05:01:00;;;;;;;3.17;1.00;;;;;;;31.34;37.49;100622.34;2077289;28;20053;-74
2022/06/08 05:04:11;;;;;;;3.35;0.95;;;;;;;31.63;37.14;100634.75;2078671;28;20045;-73
2022/06/08 05:05:38;;;;;;;1.92;0.85;;;;;;;31.82;37.27;100638.84;2069215;28;20076;-73
2022/06/08 05:07:07;;;;;;;5.00;1.30;;;;;;;31.97;37.09;100644.00;2070696;28;20056;-74
2022/06/08 05:08:29;;;;;;;4.65;1.00;;;;;;;32.14;37.10;100652.81;2067350;28;20144;-74
2022/06/08 05:09:52;;;;;;;2.25;0.90;;;;;;;32.34;36.94;100653.06;2073669;28;20399;-74
2022/06/08 05:11:15;;;;;;;1.65;0.65;;;;;;;32.52;36.32;100652.59;2066856;28;20045;-74
2022/06/08 05:12:39;;;;;;;2.97;0.88;;;;;;;32.75;35.86;100654.47;2075410;28;20418;-74
2022/06/08 05:14:01;;;;;;;2.60;0.90;;;;;;;32.95;35.68;100645.53;2074517;28;20049;-72
2022/06/08 05:15:28;;;;;;;3.13;0.80;;;;;;;33.13;35.28;100654.16;2073821;28;20045;-71
2022/06/08 05:16:53;;;;;;;3.78;0.82;;;;;;;33.31;34.75;100657.31;2067998;28;20038;-75
2022/06/08 05:18:20;;;;;;;3.30;1.00;;;;;;;33.48;34.45;100652.19;2077242;28;20057;-74
2022/06/08 05:19:45;;;;;;;3.53;1.00;;;;;;;33.58;34.05;100650.44;2084507;28;20041;-72
2022/06/08 05:21:08;;;;;;;3.40;0.88;;;;;;;33.63;33.86;100648.19;2093969;28;20055;-71
2022/06/08 05:22:31;;;;;;;3.10;1.20;;;;;;;33.77;34.09;100647.09;2071672;28;20057;-72
2022/06/08 05:23:55;;;;;;;1.75;0.70;;;;;;;33.82;33.69;100646.69;2071307;28;20176;-72
2022/06/08 05:25:31;;;;;;;2.28;0.73;;;;;;;33.95;33.56;100648.28;2077633;28;20447;-72
2022/06/08 05:26:53;;;;;;;4.45;0.85;;;;;;;34.12;33.22;100651.50;2085861;28;20571;-72
2022/06/08 05:28:17;;;;;;;3.83;0.80;;;;;;;34.14;32.94;100658.56;2071936;28;20074;-72
2022/06/08 05:29:46;;;;;;;2.78;0.75;;;;;;;33.98;33.00;100653.53;2070128;28;20069;-73
2022/06/08 05:31:09;;;;;;;2.85;1.60;;;;;;;33.96;32.85;100654.63;2066564;28;20096;-71
2022/06/08 05:32:33;;;;;;;2.00;0.90;;;;;;;34.04;32.92;100654.00;2073509;28;20519;-72
2022/06/08 05:33:59;;;;;;;4.82;0.90;;;;;;;34.11;32.72;100653.34;2081808;28;20053;-71
2022/06/08 05:35:23;;;;;;;2.42;0.70;;;;;;;34.25;32.48;100649.47;2069306;28;20049;-72
2022/06/08 05:36:46;;;;;;;3.38;0.90;;;;;;;34.33;32.54;100653.28;2069017;28;20466;-72
2022/06/08 05:38:15;;;;;;;1.92;0.90;;;;;;;34.28;32.72;100652.81;2074247;28;20530;-72
2022/06/08 05:39:37;;;;;;;1.98;0.68;;;;;;;34.29;32.75;100654.56;2066594;28;20053;-72
2022/06/08 05:41:00;;;;;;;3.08;1.60;;;;;;;34.34;33.07;100649.56;2079904;28;20107;-73
2022/06/08 05:42:23;;;;;;;2.30;0.70;;;;;;;34.47;33.04;100656.72;2069197;28;20038;-73
2022/06/08 05:43:46;;;;;;;6.95;1.83;;;;;;;34.61;32.63;100659.16;2076192;28;20045;-73
2022/06/08 05:45:15;;;;;;;2.35;0.70;;;;;;;34.62;32.25;100653.53;2079194;28;20053;-73
2022/06/08 05:46:37;;;;;;;4.20;0.77;;;;;;;34.58;32.36;100660.31;2091954;28;20106;-72
2022/06/08 05:48:05;;;;;;;2.47;0.77;;;;;;;34.61;32.22;100662.75;2078366;28;20427;-73
2022/06/08 05:49:34;;;;;;;2.03;0.90;;;;;;;34.66;32.21;100668.72;2074496;28;20136;-73
2022/06/08 05:50:59;;;;;;;3.90;0.90;;;;;;;34.70;32.25;100672.94;2069580;28;20046;-73
2022/06/08 05:52:23;;;;;;;2.35;0.80;;;;;;;34.82;32.18;100675.66;2084709;28;20053;-73
2022/06/08 05:53:46;;;;;;;5.38;0.90;;;;;;;34.87;32.09;100676.13;2081410;28;20057;-73
2022/06/08 05:55:12;;;;;;;4.00;0.70;;;;;;;35.06;32.12;100673.50;2076459;28;20474;-72
2022/06/08 05:56:36;;;;;;;3.88;0.85;;;;;;;35.19;32.20;100679.63;2074667;28;20136;-73
2022/06/08 05:58:00;;;;;;;2.03;0.80;;;;;;;35.20;31.77;100678.63;2076801;28;20059;-73
2022/06/08 05:59:23;;;;;;;1.10;0.70;;;;;;;35.22;32.16;100682.16;2081684;28;20053;-74
2022/06/08 06:00:46;;;;;;;3.85;0.95;;;;;;;35.29;31.64;100675.13;2077954;28;20124;-73
2022/06/08 06:02:15;;;;;;;3.22;0.90;;;;;;;35.34;31.39;100681.06;2084542;28;20086;-72
2022/06/08 06:03:37;;;;;;;3.10;0.95;;;;;;;35.40;31.06;100675.03;2085625;28;20049;-73
2022/06/08 06:05:02;;;;;;;3.80;0.88;;;;;;;35.45;31.18;100672.72;2076817;28;20144;-74
2022/06/08 06:06:25;;;;;;;3.92;1.13;;;;;;;35.53;31.12;100686.63;2075459;28;20102;-72
2022/06/08 06:07:47;;;;;;;3.28;0.90;;;;;;;35.60;30.94;100683.34;2073898;28;20631;-72
2022/06/08 06:09:22;;;;;;;1.90;0.90;;;;;;;35.61;30.72;100679.59;2071248;28;20072;-73
2022/06/08 06:10:47;;;;;;;3.65;0.90;;;;;;;35.63;30.85;100683.06;2068174;28;20038;-73
2022/06/08 06:12:14;;;;;;;1.73;0.73;;;;;;;35.63;30.36;100689.44;2078040;28;20437;-72
2022/06/08 06:13:37;;;;;;;2.30;0.90;;;;;;;35.58;30.44;100687.09;2085039;28;20111;-73
2022/06/08 06:15:02;;;;;;;1.95;0.80;;;;;;;35.58;30.39;100684.34;2079086;28;20089;-73
2022/06/08 06:16:25;;;;;;;3.13;0.93;;;;;;;35.76;29.92;100690.09;2081305;28;20087;-73
2022/06/08 06:17:51;;;;;;;3.13;0.98;;;;;;;35.99;29.33;100685.22;2078981;28;20133;-73
2022/06/08 06:19:14;;;;;;;5.65;0.70;;;;;;;36.01;29.29;100688.72;2075556;28;20736;-73
2022/06/08 06:20:57;;;;;;;2.40;0.77;;;;;;;35.98;29.11;100680.72;2081047;28;20049;-73
2022/06/08 06:22:42;;;;;;;3.45;1.17;;;;;;;35.95;29.34;100684.66;2081369;28;20056;-73
2022/06/08 06:24:31;;;;;;;1.92;1.00;;;;;;;35.93;29.09;100685.78;2081360;28;20102;-73
2022/06/08 06:26:15;;;;;;;4.18;0.90;;;;;;;35.98;29.68;100686.22;2075549;28;20045;-74
2022/06/08 06:28:07;;;;;;;4.32;0.90;;;;;;;36.01;29.96;100682.34;2082522;28;20561;-74
2022/06/08 06:30:01;;;;;;;5.35;1.00;;;;;;;35.97;30.74;100681.78;2086535;28;20072;-73
2022/06/08 06:31:56;;;;;;;4.28;1.02;;;;;;;35.91;30.79;100688.69;2050296;28;20189;-74
2022/06/08 06:33:19;;;;;;;4.45;1.00;;;;;;;35.85;31.06;100688.38;2061603;28;20054;-74
2022/06/08 06:34:45;;;;;;;3.38;1.05;;;;;;;35.90;30.66;100695.22;2076751;28;20054;-74
2022/06/08 06:36:10;;;;;;;3.85;1.00;;;;;;;35.97;30.66;100692.78;2074517;28;20486;-74
2022/06/08 06:37:33;;;;;;;4.20;1.17;;;;;;;35.88;31.03;100690.84;2084729;28;20083;-74
2022/06/08 06:38:58;;;;;;;2.85;0.90;;;;;;;35.80;31.19;100697.03;2078761;28;20080;-74
2022/06/08 06:40:22;;;;;;;2.55;1.10;;;;;;;35.68;31.70;100700.88;2076738;28;20041;-73
2022/06/08 06:41:46;;;;;;;5.63;1.00;;;;;;;35.62;31.60;100693.19;2077903;28;20045;-74
2022/06/08 06:43:12;;;;;;;2.92;1.27;;;;;;;35.42;31.77;100699.59;2081491;28;20045;-74
2022/06/08 06:44:37;;;;;;;3.35;0.80;;;;;;;35.30;32.20;100693.34;2086511;28;20148;-74
2022/06/08 06:46:10;;;;;;;4.88;0.90;;;;;;;35.33;32.22;100694.94;2072355;28;20038;-73
2022/06/08 06:47:46;;;;;;;2.72;0.70;;;;;;;35.21;32.38;100685.03;2071948;28;20034;-74
2022/06/08 06:49:16;;;;;;;3.60;1.05;;;;;;;35.01;32.70;100692.25;2075015;28;20049;-74
2022/06/08 06:50:41;;;;;;;2.70;1.08;;;;;;;34.92;32.92;100693.91;2078807;28;20033;-74
2022/06/08 06:52:07;;;;;;;5.80;1.42;;;;;;;34.92;32.68;100699.41;2084293;28;20053;-73